sensor_id;sensor_type;location;lat;lon;timestamp;P1;durP1;ratioP1;P2;durP2;ratioP2
75554;SDS011;64138;53.124;18.032;2022-10-26T00:00:48;6.30;;;3.30;;
75554;SDS011;64138;53.124;18.032;2022-10-26T00:03:32;7.70;;;3.70;;
75554;SDS011;64138;53.124;18.032;2022-10-26T00:06:06;6.60;;;3.70;;
75554;SDS011;64138;53.124;18.032;2022-10-26T00:08:38;5.40;;;2.80;;
75554;SDS011;64138;53.124;18.032;2022-10-26T00:11:05;6.80;;;3.30;;
75554;SDS011;64138;53.124;18.032;2022-10-26T00:13:32;7.40;;;4.00;;
75554;SDS011;64138;53.124;18.032;2022-10-26T00:15:59;7.40;;;3.30;;
75554;SDS011;64138;53.124;18.032;2022-10-26T00:18:26;9.20;;;3.30;;
75554;SDS011;64138;53.124;18.032;2022-10-26T00:20:53;7.30;;;3.40;;
75554;SDS011;64138;53.124;18.032;2022-10-26T00:23:19;7.60;;;2.80;;
75554;SDS011;64138;53.124;18.032;2022-10-26T00:25:52;6.20;;;3.00;;
75554;SDS011;64138;53.124;18.032;2022-10-26T00:28:20;4.50;;;2.20;;
75554;SDS011;64138;53.124;18.032;2022-10-26T00:30:47;6.00;;;2.70;;
75554;SDS011;64138;53.124;18.032;2022-10-26T00:33:13;6.40;;;2.30;;
75554;SDS011;64138;53.124;18.032;2022-10-26T00:35:40;7.30;;;2.60;;
75554;SDS011;64138;53.124;18.032;2022-10-26T00:38:07;5.50;;;2.70;;
75554;SDS011;64138;53.124;18.032;2022-10-26T00:40:33;6.50;;;3.00;;
75554;SDS011;64138;53.124;18.032;2022-10-26T00:43:00;4.70;;;2.00;;
75554;SDS011;64138;53.124;18.032;2022-10-26T00:45:27;8.00;;;2.70;;
75554;SDS011;64138;53.124;18.032;2022-10-26T00:47:57;6.10;;;2.80;;
75554;SDS011;64138;53.124;18.032;2022-10-26T00:50:31;7.20;;;2.70;;
75554;SDS011;64138;53.124;18.032;2022-10-26T00:52:59;6.20;;;2.70;;
75554;SDS011;64138;53.124;18.032;2022-10-26T00:55:30;7.30;;;3.30;;
75554;SDS011;64138;53.124;18.032;2022-10-26T00:57:59;6.30;;;2.40;;
75554;SDS011;64138;53.124;18.032;2022-10-26T01:00:27;4.00;;;1.60;;
75554;SDS011;64138;53.124;18.032;2022-10-26T01:02:54;5.60;;;2.20;;
75554;SDS011;64138;53.124;18.032;2022-10-26T01:05:23;5.30;;;2.30;;
75554;SDS011;64138;53.124;18.032;2022-10-26T01:07:51;7.80;;;2.70;;
75554;SDS011;64138;53.124;18.032;2022-10-26T01:10:17;5.10;;;2.10;;
75554;SDS011;64138;53.124;18.032;2022-10-26T01:12:44;5.20;;;2.10;;
75554;SDS011;64138;53.124;18.032;2022-10-26T01:15:11;6.10;;;3.10;;
75554;SDS011;64138;53.124;18.032;2022-10-26T01:25:52;7.70;;;3.30;;
75554;SDS011;64138;53.124;18.032;2022-10-26T01:31:29;9.70;;;4.30;;
75554;SDS011;64138;53.124;18.032;2022-10-26T01:34:10;10.10;;;4.90;;
75554;SDS011;64138;53.124;18.032;2022-10-26T01:36:52;9.10;;;4.00;;
75554;SDS011;64138;53.124;18.032;2022-10-26T01:39:22;8.80;;;4.10;;
75554;SDS011;64138;53.124;18.032;2022-10-26T01:41:56;8.30;;;4.20;;
75554;SDS011;64138;53.124;18.032;2022-10-26T01:44:25;9.50;;;4.20;;
75554;SDS011;64138;53.124;18.032;2022-10-26T01:46:55;8.80;;;4.10;;
75554;SDS011;64138;53.124;18.032;2022-10-26T01:49:27;10.00;;;4.10;;
75554;SDS011;64138;53.124;18.032;2022-10-26T01:51:56;8.20;;;4.10;;
75554;SDS011;64138;53.124;18.032;2022-10-26T01:54:23;8.40;;;4.40;;
75554;SDS011;64138;53.124;18.032;2022-10-26T01:56:51;10.60;;;4.30;;
75554;SDS011;64138;53.124;18.032;2022-10-26T01:59:29;8.00;;;4.30;;
75554;SDS011;64138;53.124;18.032;2022-10-26T02:15:47;11.30;;;3.90;;
75554;SDS011;64138;53.124;18.032;2022-10-26T02:18:28;9.00;;;4.00;;
75554;SDS011;64138;53.124;18.032;2022-10-26T02:21:00;8.80;;;4.50;;
75554;SDS011;64138;53.124;18.032;2022-10-26T02:23:29;11.30;;;4.90;;
75554;SDS011;64138;53.124;18.032;2022-10-26T02:25:58;9.90;;;5.10;;
75554;SDS011;64138;53.124;18.032;2022-10-26T02:28:33;10.60;;;5.30;;
75554;SDS011;64138;53.124;18.032;2022-10-26T02:31:03;10.20;;;5.30;;
75554;SDS011;64138;53.124;18.032;2022-10-26T02:33:32;8.90;;;4.70;;
75554;SDS011;64138;53.124;18.032;2022-10-26T02:36:03;12.80;;;5.90;;
75554;SDS011;64138;53.124;18.032;2022-10-26T02:38:31;8.90;;;4.50;;
75554;SDS011;64138;53.124;18.032;2022-10-26T02:40:59;9.70;;;5.00;;
75554;SDS011;64138;53.124;18.032;2022-10-26T02:43:26;10.60;;;5.10;;
75554;SDS011;64138;53.124;18.032;2022-10-26T02:45:56;11.20;;;5.00;;
75554;SDS011;64138;53.124;18.032;2022-10-26T02:48:26;11.50;;;5.80;;
75554;SDS011;64138;53.124;18.032;2022-10-26T02:51:00;10.70;;;5.50;;
75554;SDS011;64138;53.124;18.032;2022-10-26T02:55:57;13.30;;;6.10;;
75554;SDS011;64138;53.124;18.032;2022-10-26T02:58:27;8.80;;;4.70;;
75554;SDS011;64138;53.124;18.032;2022-10-26T03:00:55;14.00;;;5.60;;
75554;SDS011;64138;53.124;18.032;2022-10-26T03:03:23;12.50;;;6.20;;
75554;SDS011;64138;53.124;18.032;2022-10-26T03:05:50;13.10;;;6.00;;
75554;SDS011;64138;53.124;18.032;2022-10-26T03:08:16;13.00;;;7.10;;
75554;SDS011;64138;53.124;18.032;2022-10-26T03:10:43;13.00;;;6.30;;
75554;SDS011;64138;53.124;18.032;2022-10-26T03:13:11;12.00;;;5.60;;
75554;SDS011;64138;53.124;18.032;2022-10-26T03:15:39;11.70;;;5.30;;
75554;SDS011;64138;53.124;18.032;2022-10-26T03:18:06;11.00;;;5.30;;
75554;SDS011;64138;53.124;18.032;2022-10-26T03:20:32;10.30;;;4.80;;
75554;SDS011;64138;53.124;18.032;2022-10-26T03:22:59;11.70;;;6.10;;
75554;SDS011;64138;53.124;18.032;2022-10-26T03:25:25;11.80;;;5.70;;
75554;SDS011;64138;53.124;18.032;2022-10-26T03:27:56;10.30;;;4.60;;
75554;SDS011;64138;53.124;18.032;2022-10-26T03:30:26;10.80;;;4.70;;
75554;SDS011;64138;53.124;18.032;2022-10-26T03:32:54;10.60;;;5.20;;
75554;SDS011;64138;53.124;18.032;2022-10-26T03:35:20;9.70;;;4.70;;
75554;SDS011;64138;53.124;18.032;2022-10-26T03:37:47;10.20;;;5.00;;
75554;SDS011;64138;53.124;18.032;2022-10-26T03:40:14;10.20;;;4.90;;
75554;SDS011;64138;53.124;18.032;2022-10-26T03:42:41;11.40;;;5.70;;
75554;SDS011;64138;53.124;18.032;2022-10-26T03:45:08;13.90;;;6.20;;
75554;SDS011;64138;53.124;18.032;2022-10-26T03:47:44;12.70;;;6.30;;
75554;SDS011;64138;53.124;18.032;2022-10-26T03:50:12;14.70;;;6.70;;
75554;SDS011;64138;53.124;18.032;2022-10-26T03:52:40;12.80;;;5.50;;
75554;SDS011;64138;53.124;18.032;2022-10-26T03:55:07;8.40;;;4.40;;
75554;SDS011;64138;53.124;18.032;2022-10-26T03:57:38;7.60;;;3.70;;
75554;SDS011;64138;53.124;18.032;2022-10-26T04:00:07;9.40;;;4.90;;
75554;SDS011;64138;53.124;18.032;2022-10-26T04:02:38;9.10;;;4.90;;
75554;SDS011;64138;53.124;18.032;2022-10-26T04:05:04;8.30;;;4.40;;
75554;SDS011;64138;53.124;18.032;2022-10-26T04:07:32;8.60;;;3.90;;
75554;SDS011;64138;53.124;18.032;2022-10-26T04:09:59;9.40;;;4.30;;
75554;SDS011;64138;53.124;18.032;2022-10-26T04:12:25;10.40;;;5.20;;
75554;SDS011;64138;53.124;18.032;2022-10-26T04:14:52;10.20;;;5.40;;
75554;SDS011;64138;53.124;18.032;2022-10-26T04:17:18;9.50;;;5.00;;
75554;SDS011;64138;53.124;18.032;2022-10-26T04:19:45;10.70;;;5.70;;
75554;SDS011;64138;53.124;18.032;2022-10-26T04:22:12;10.00;;;4.60;;
75554;SDS011;64138;53.124;18.032;2022-10-26T04:24:38;8.20;;;4.50;;
75554;SDS011;64138;53.124;18.032;2022-10-26T04:27:05;7.80;;;4.00;;
75554;SDS011;64138;53.124;18.032;2022-10-26T04:29:31;8.70;;;4.10;;
75554;SDS011;64138;53.124;18.032;2022-10-26T04:31:58;9.30;;;4.10;;
75554;SDS011;64138;53.124;18.032;2022-10-26T04:34:24;8.20;;;3.90;;
75554;SDS011;64138;53.124;18.032;2022-10-26T04:36:51;9.60;;;4.60;;
75554;SDS011;64138;53.124;18.032;2022-10-26T04:39:17;9.40;;;5.20;;
75554;SDS011;64138;53.124;18.032;2022-10-26T04:41:44;9.70;;;4.80;;
75554;SDS011;64138;53.124;18.032;2022-10-26T04:44:11;9.30;;;4.80;;
75554;SDS011;64138;53.124;18.032;2022-10-26T04:46:37;10.60;;;5.80;;
75554;SDS011;64138;53.124;18.032;2022-10-26T04:49:04;11.00;;;5.90;;
75554;SDS011;64138;53.124;18.032;2022-10-26T04:51:30;9.10;;;4.80;;
75554;SDS011;64138;53.124;18.032;2022-10-26T04:53:57;8.00;;;4.10;;
75554;SDS011;64138;53.124;18.032;2022-10-26T04:56:23;8.50;;;4.60;;
75554;SDS011;64138;53.124;18.032;2022-10-26T04:58:52;9.70;;;5.20;;
75554;SDS011;64138;53.124;18.032;2022-10-26T05:01:19;9.20;;;4.70;;
75554;SDS011;64138;53.124;18.032;2022-10-26T05:03:49;9.40;;;4.90;;
75554;SDS011;64138;53.124;18.032;2022-10-26T05:06:16;7.70;;;4.10;;
75554;SDS011;64138;53.124;18.032;2022-10-26T05:08:43;8.20;;;4.10;;
75554;SDS011;64138;53.124;18.032;2022-10-26T05:11:10;7.80;;;3.60;;
75554;SDS011;64138;53.124;18.032;2022-10-26T05:13:36;7.70;;;3.90;;
75554;SDS011;64138;53.124;18.032;2022-10-26T05:16:03;8.20;;;4.30;;
75554;SDS011;64138;53.124;18.032;2022-10-26T05:18:30;6.00;;;2.70;;
75554;SDS011;64138;53.124;18.032;2022-10-26T05:20:57;8.20;;;3.70;;
75554;SDS011;64138;53.124;18.032;2022-10-26T05:23:23;5.70;;;2.70;;
75554;SDS011;64138;53.124;18.032;2022-10-26T05:25:50;6.70;;;3.40;;
75554;SDS011;64138;53.124;18.032;2022-10-26T05:28:17;7.90;;;3.80;;
75554;SDS011;64138;53.124;18.032;2022-10-26T05:30:44;6.80;;;3.30;;
75554;SDS011;64138;53.124;18.032;2022-10-26T05:33:12;7.10;;;3.50;;
75554;SDS011;64138;53.124;18.032;2022-10-26T05:35:39;9.20;;;3.70;;
75554;SDS011;64138;53.124;18.032;2022-10-26T05:38:06;7.30;;;3.80;;
75554;SDS011;64138;53.124;18.032;2022-10-26T05:40:36;7.20;;;3.60;;
75554;SDS011;64138;53.124;18.032;2022-10-26T05:43:03;8.30;;;4.30;;
75554;SDS011;64138;53.124;18.032;2022-10-26T05:45:29;8.30;;;3.80;;
75554;SDS011;64138;53.124;18.032;2022-10-26T05:47:56;7.90;;;4.40;;
75554;SDS011;64138;53.124;18.032;2022-10-26T05:50:23;6.20;;;3.30;;
75554;SDS011;64138;53.124;18.032;2022-10-26T05:52:49;7.10;;;3.40;;
75554;SDS011;64138;53.124;18.032;2022-10-26T05:55:16;7.00;;;3.50;;
75554;SDS011;64138;53.124;18.032;2022-10-26T05:57:43;7.70;;;3.50;;
75554;SDS011;64138;53.124;18.032;2022-10-26T06:00:20;8.70;;;4.00;;
75554;SDS011;64138;53.124;18.032;2022-10-26T06:05:55;7.50;;;3.90;;
75554;SDS011;64138;53.124;18.032;2022-10-26T06:08:24;7.10;;;4.10;;
75554;SDS011;64138;53.124;18.032;2022-10-26T06:10:54;8.10;;;4.10;;
75554;SDS011;64138;53.124;18.032;2022-10-26T06:13:22;6.10;;;3.00;;
75554;SDS011;64138;53.124;18.032;2022-10-26T06:16:02;7.20;;;3.50;;
75554;SDS011;64138;53.124;18.032;2022-10-26T06:18:53;5.70;;;3.00;;
75554;SDS011;64138;53.124;18.032;2022-10-26T06:24:14;7.50;;;3.20;;
75554;SDS011;64138;53.124;18.032;2022-10-26T06:26:54;7.70;;;3.10;;
75554;SDS011;64138;53.124;18.032;2022-10-26T06:29:47;7.50;;;3.90;;
75554;SDS011;64138;53.124;18.032;2022-10-26T06:32:21;7.00;;;3.30;;
75554;SDS011;64138;53.124;18.032;2022-10-26T06:34:50;6.90;;;3.30;;
75554;SDS011;64138;53.124;18.032;2022-10-26T06:37:19;6.80;;;3.00;;
75554;SDS011;64138;53.124;18.032;2022-10-26T06:39:46;6.10;;;2.70;;
75554;SDS011;64138;53.124;18.032;2022-10-26T06:42:15;7.70;;;3.40;;
75554;SDS011;64138;53.124;18.032;2022-10-26T06:44:41;7.30;;;3.20;;
75554;SDS011;64138;53.124;18.032;2022-10-26T06:47:10;6.70;;;3.40;;
75554;SDS011;64138;53.124;18.032;2022-10-26T06:50:28;7.10;;;3.60;;
75554;SDS011;64138;53.124;18.032;2022-10-26T06:52:53;6.40;;;3.30;;
75554;SDS011;64138;53.124;18.032;2022-10-26T06:55:29;6.80;;;3.40;;
75554;SDS011;64138;53.124;18.032;2022-10-26T06:58:07;6.90;;;3.40;;
75554;SDS011;64138;53.124;18.032;2022-10-26T07:00:36;7.10;;;3.50;;
75554;SDS011;64138;53.124;18.032;2022-10-26T07:03:04;6.70;;;3.10;;
75554;SDS011;64138;53.124;18.032;2022-10-26T07:05:30;7.50;;;3.40;;
75554;SDS011;64138;53.124;18.032;2022-10-26T07:07:57;7.20;;;4.50;;
75554;SDS011;64138;53.124;18.032;2022-10-26T07:10:24;7.00;;;3.50;;
75554;SDS011;64138;53.124;18.032;2022-10-26T15:18:48;4.60;;;2.00;;
75554;SDS011;64138;53.124;18.032;2022-10-26T15:23:53;6.00;;;2.20;;
75554;SDS011;64138;53.124;18.032;2022-10-26T15:26:21;5.80;;;2.40;;
75554;SDS011;64138;53.124;18.032;2022-10-26T15:38:57;14.40;;;8.40;;
75554;SDS011;64138;53.124;18.032;2022-10-26T15:41:26;12.50;;;8.70;;
75554;SDS011;64138;53.124;18.032;2022-10-26T15:43:56;10.60;;;7.30;;
75554;SDS011;64138;53.124;18.032;2022-10-26T15:46:24;16.20;;;10.20;;
75554;SDS011;64138;53.124;18.032;2022-10-26T15:48:56;11.90;;;7.40;;
75554;SDS011;64138;53.124;18.032;2022-10-26T15:51:24;12.00;;;6.70;;
75554;SDS011;64138;53.124;18.032;2022-10-26T15:53:52;10.40;;;6.80;;
75554;SDS011;64138;53.124;18.032;2022-10-26T15:56:21;9.40;;;6.00;;
75554;SDS011;64138;53.124;18.032;2022-10-26T15:58:49;10.20;;;6.00;;
75554;SDS011;64138;53.124;18.032;2022-10-26T16:01:17;10.60;;;5.40;;
75554;SDS011;64138;53.124;18.032;2022-10-26T16:03:46;10.10;;;6.30;;
75554;SDS011;64138;53.124;18.032;2022-10-26T16:06:27;7.40;;;4.70;;
75554;SDS011;64138;53.124;18.032;2022-10-26T16:08:57;11.90;;;6.20;;
75554;SDS011;64138;53.124;18.032;2022-10-26T16:11:26;15.80;;;8.20;;
75554;SDS011;64138;53.124;18.032;2022-10-26T16:13:56;14.50;;;7.50;;
75554;SDS011;64138;53.124;18.032;2022-10-26T16:16:25;14.80;;;7.60;;
75554;SDS011;64138;53.124;18.032;2022-10-26T16:18:56;12.20;;;7.10;;
75554;SDS011;64138;53.124;18.032;2022-10-26T16:21:24;22.10;;;11.70;;
75554;SDS011;64138;53.124;18.032;2022-10-26T16:23:57;47.00;;;23.00;;
75554;SDS011;64138;53.124;18.032;2022-10-26T16:26:24;62.10;;;32.50;;
75554;SDS011;64138;53.124;18.032;2022-10-26T16:28:51;58.20;;;29.40;;
75554;SDS011;64138;53.124;18.032;2022-10-26T16:31:18;44.50;;;23.00;;
75554;SDS011;64138;53.124;18.032;2022-10-26T16:33:46;40.70;;;23.20;;
75554;SDS011;64138;53.124;18.032;2022-10-26T16:36:13;46.30;;;23.80;;
75554;SDS011;64138;53.124;18.032;2022-10-26T16:38:41;51.90;;;26.60;;
75554;SDS011;64138;53.124;18.032;2022-10-26T16:43:35;57.30;;;31.90;;
75554;SDS011;64138;53.124;18.032;2022-10-26T16:46:05;32.90;;;18.50;;
75554;SDS011;64138;53.124;18.032;2022-10-26T16:48:33;24.90;;;15.00;;
75554;SDS011;64138;53.124;18.032;2022-10-26T16:51:07;19.00;;;10.90;;
75554;SDS011;64138;53.124;18.032;2022-10-26T16:53:36;15.30;;;8.70;;
75554;SDS011;64138;53.124;18.032;2022-10-26T16:56:03;18.20;;;11.00;;
75554;SDS011;64138;53.124;18.032;2022-10-26T16:58:31;18.10;;;10.80;;
75554;SDS011;64138;53.124;18.032;2022-10-26T17:00:58;14.30;;;7.70;;
75554;SDS011;64138;53.124;18.032;2022-10-26T17:03:25;11.70;;;6.20;;
75554;SDS011;64138;53.124;18.032;2022-10-26T17:05:55;10.20;;;5.60;;
75554;SDS011;64138;53.124;18.032;2022-10-26T17:08:23;13.10;;;6.00;;
75554;SDS011;64138;53.124;18.032;2022-10-26T17:10:51;10.00;;;5.40;;
75554;SDS011;64138;53.124;18.032;2022-10-26T17:13:19;12.10;;;6.60;;
75554;SDS011;64138;53.124;18.032;2022-10-26T17:15:46;13.20;;;7.30;;
75554;SDS011;64138;53.124;18.032;2022-10-26T17:18:13;11.10;;;5.00;;
75554;SDS011;64138;53.124;18.032;2022-10-26T17:20:47;10.40;;;5.00;;
75554;SDS011;64138;53.124;18.032;2022-10-26T17:23:14;9.70;;;4.60;;
75554;SDS011;64138;53.124;18.032;2022-10-26T17:25:41;9.20;;;4.60;;
75554;SDS011;64138;53.124;18.032;2022-10-26T17:28:07;10.30;;;6.30;;
75554;SDS011;64138;53.124;18.032;2022-10-26T17:30:34;13.00;;;6.50;;
75554;SDS011;64138;53.124;18.032;2022-10-26T17:33:01;10.00;;;5.00;;
75554;SDS011;64138;53.124;18.032;2022-10-26T17:35:28;16.00;;;6.50;;
75554;SDS011;64138;53.124;18.032;2022-10-26T17:37:54;16.60;;;7.20;;
75554;SDS011;64138;53.124;18.032;2022-10-26T17:40:21;12.80;;;5.80;;
75554;SDS011;64138;53.124;18.032;2022-10-26T17:42:48;9.70;;;5.00;;
75554;SDS011;64138;53.124;18.032;2022-10-26T17:45:14;23.40;;;8.20;;
75554;SDS011;64138;53.124;18.032;2022-10-26T17:47:41;14.80;;;6.70;;
75554;SDS011;64138;53.124;18.032;2022-10-26T17:50:08;14.30;;;6.80;;
75554;SDS011;64138;53.124;18.032;2022-10-26T17:52:36;14.60;;;7.30;;
75554;SDS011;64138;53.124;18.032;2022-10-26T17:55:03;16.40;;;7.80;;
75554;SDS011;64138;53.124;18.032;2022-10-26T17:57:30;14.30;;;7.60;;
75554;SDS011;64138;53.124;18.032;2022-10-26T17:59:58;11.90;;;6.30;;
75554;SDS011;64138;53.124;18.032;2022-10-26T18:02:25;12.40;;;5.30;;
75554;SDS011;64138;53.124;18.032;2022-10-26T18:04:52;11.30;;;5.90;;
75554;SDS011;64138;53.124;18.032;2022-10-26T18:07:18;13.10;;;6.70;;
75554;SDS011;64138;53.124;18.032;2022-10-26T18:09:45;13.00;;;5.30;;
75554;SDS011;64138;53.124;18.032;2022-10-26T18:12:13;12.30;;;5.40;;
75554;SDS011;64138;53.124;18.032;2022-10-26T18:14:40;11.30;;;5.90;;
75554;SDS011;64138;53.124;18.032;2022-10-26T18:17:07;10.50;;;5.50;;
75554;SDS011;64138;53.124;18.032;2022-10-26T18:19:34;10.80;;;5.50;;
75554;SDS011;64138;53.124;18.032;2022-10-26T18:22:01;12.20;;;5.60;;
75554;SDS011;64138;53.124;18.032;2022-10-26T18:24:28;12.40;;;6.30;;
75554;SDS011;64138;53.124;18.032;2022-10-26T18:26:55;18.90;;;7.20;;
75554;SDS011;64138;53.124;18.032;2022-10-26T18:29:24;12.40;;;5.90;;
75554;SDS011;64138;53.124;18.032;2022-10-26T18:31:50;9.60;;;4.20;;
75554;SDS011;64138;53.124;18.032;2022-10-26T18:34:17;14.00;;;6.60;;
75554;SDS011;64138;53.124;18.032;2022-10-26T18:36:46;21.60;;;10.30;;
75554;SDS011;64138;53.124;18.032;2022-10-26T18:39:12;18.70;;;8.90;;
75554;SDS011;64138;53.124;18.032;2022-10-26T18:41:39;29.60;;;16.80;;
75554;SDS011;64138;53.124;18.032;2022-10-26T18:44:07;28.60;;;16.10;;
75554;SDS011;64138;53.124;18.032;2022-10-26T18:46:36;29.30;;;17.10;;
75554;SDS011;64138;53.124;18.032;2022-10-26T18:49:05;32.10;;;18.50;;
75554;SDS011;64138;53.124;18.032;2022-10-26T18:51:32;40.20;;;22.50;;
75554;SDS011;64138;53.124;18.032;2022-10-26T18:54:00;42.40;;;22.90;;
75554;SDS011;64138;53.124;18.032;2022-10-26T18:56:27;34.70;;;20.00;;
75554;SDS011;64138;53.124;18.032;2022-10-26T18:58:55;23.30;;;10.40;;
75554;SDS011;64138;53.124;18.032;2022-10-26T19:01:24;37.10;;;22.40;;
75554;SDS011;64138;53.124;18.032;2022-10-26T19:03:56;30.10;;;18.40;;
75554;SDS011;64138;53.124;18.032;2022-10-26T19:06:28;28.20;;;16.80;;
75554;SDS011;64138;53.124;18.032;2022-10-26T19:08:56;26.80;;;14.90;;
75554;SDS011;64138;53.124;18.032;2022-10-26T19:11:24;16.60;;;8.90;;
75554;SDS011;64138;53.124;18.032;2022-10-26T19:13:51;14.90;;;7.60;;
75554;SDS011;64138;53.124;18.032;2022-10-26T19:16:23;14.80;;;7.30;;
75554;SDS011;64138;53.124;18.032;2022-10-26T19:18:51;10.80;;;6.80;;
75554;SDS011;64138;53.124;18.032;2022-10-26T19:21:19;16.50;;;9.60;;
75554;SDS011;64138;53.124;18.032;2022-10-26T19:23:47;12.80;;;7.60;;
75554;SDS011;64138;53.124;18.032;2022-10-26T19:26:25;13.60;;;6.50;;
75554;SDS011;64138;53.124;18.032;2022-10-26T19:28:53;11.20;;;6.80;;
75554;SDS011;64138;53.124;18.032;2022-10-26T19:31:23;16.80;;;7.00;;
75554;SDS011;64138;53.124;18.032;2022-10-26T19:33:51;10.30;;;6.40;;
75554;SDS011;64138;53.124;18.032;2022-10-26T19:36:18;10.40;;;5.30;;
75554;SDS011;64138;53.124;18.032;2022-10-26T19:38:45;10.60;;;5.30;;
75554;SDS011;64138;53.124;18.032;2022-10-26T19:41:12;12.60;;;5.60;;
75554;SDS011;64138;53.124;18.032;2022-10-26T19:43:41;14.60;;;7.00;;
75554;SDS011;64138;53.124;18.032;2022-10-26T19:46:12;16.70;;;7.20;;
75554;SDS011;64138;53.124;18.032;2022-10-26T19:48:41;27.40;;;13.10;;
75554;SDS011;64138;53.124;18.032;2022-10-26T19:51:08;72.10;;;33.20;;
75554;SDS011;64138;53.124;18.032;2022-10-26T19:53:34;67.20;;;30.20;;
75554;SDS011;64138;53.124;18.032;2022-10-26T19:56:01;62.90;;;28.40;;
75554;SDS011;64138;53.124;18.032;2022-10-26T19:58:29;65.10;;;29.40;;
75554;SDS011;64138;53.124;18.032;2022-10-26T20:00:57;75.60;;;34.60;;
75554;SDS011;64138;53.124;18.032;2022-10-26T20:03:25;74.80;;;34.90;;
75554;SDS011;64138;53.124;18.032;2022-10-26T20:05:55;71.40;;;33.90;;
75554;SDS011;64138;53.124;18.032;2022-10-26T20:08:22;63.20;;;31.10;;
75554;SDS011;64138;53.124;18.032;2022-10-26T20:10:51;68.10;;;31.50;;
75554;SDS011;64138;53.124;18.032;2022-10-26T20:13:18;59.40;;;29.30;;
75554;SDS011;64138;53.124;18.032;2022-10-26T20:15:45;45.10;;;24.00;;
75554;SDS011;64138;53.124;18.032;2022-10-26T20:18:11;63.90;;;29.60;;
75554;SDS011;64138;53.124;18.032;2022-10-26T20:20:39;61.00;;;29.90;;
75554;SDS011;64138;53.124;18.032;2022-10-26T20:23:06;68.70;;;34.60;;
75554;SDS011;64138;53.124;18.032;2022-10-26T20:25:34;71.30;;;35.30;;
75554;SDS011;64138;53.124;18.032;2022-10-26T20:28:02;72.50;;;36.00;;
75554;SDS011;64138;53.124;18.032;2022-10-26T20:30:30;74.70;;;37.30;;
75554;SDS011;64138;53.124;18.032;2022-10-26T20:32:57;66.50;;;36.70;;
75554;SDS011;64138;53.124;18.032;2022-10-26T20:35:24;90.30;;;44.20;;
75554;SDS011;64138;53.124;18.032;2022-10-26T20:37:51;75.60;;;40.40;;
75554;SDS011;64138;53.124;18.032;2022-10-26T20:40:18;74.20;;;38.70;;
75554;SDS011;64138;53.124;18.032;2022-10-26T20:42:47;68.80;;;37.30;;
75554;SDS011;64138;53.124;18.032;2022-10-26T20:45:20;89.50;;;45.60;;
75554;SDS011;64138;53.124;18.032;2022-10-26T20:47:50;73.70;;;40.80;;
75554;SDS011;64138;53.124;18.032;2022-10-26T20:50:17;57.60;;;32.90;;
75554;SDS011;64138;53.124;18.032;2022-10-26T20:56:16;56.00;;;31.50;;
75554;SDS011;64138;53.124;18.032;2022-10-26T21:01:31;59.20;;;32.00;;
75554;SDS011;64138;53.124;18.032;2022-10-26T21:04:00;56.30;;;28.60;;
75554;SDS011;64138;53.124;18.032;2022-10-26T21:06:27;68.80;;;37.30;;
75554;SDS011;64138;53.124;18.032;2022-10-26T21:08:55;69.80;;;35.70;;
75554;SDS011;64138;53.124;18.032;2022-10-26T21:11:22;68.70;;;37.50;;
75554;SDS011;64138;53.124;18.032;2022-10-26T21:13:51;56.80;;;32.60;;
75554;SDS011;64138;53.124;18.032;2022-10-26T21:16:18;61.40;;;31.50;;
75554;SDS011;64138;53.124;18.032;2022-10-26T21:18:44;68.20;;;34.40;;
75554;SDS011;64138;53.124;18.032;2022-10-26T21:21:11;55.20;;;29.70;;
75554;SDS011;64138;53.124;18.032;2022-10-26T21:23:38;60.70;;;30.40;;
75554;SDS011;64138;53.124;18.032;2022-10-26T21:26:06;34.00;;;19.40;;
75554;SDS011;64138;53.124;18.032;2022-10-26T21:28:33;37.10;;;19.00;;
75554;SDS011;64138;53.124;18.032;2022-10-26T21:31:04;34.10;;;18.60;;
75554;SDS011;64138;53.124;18.032;2022-10-26T21:33:32;32.30;;;18.20;;
75554;SDS011;64138;53.124;18.032;2022-10-26T21:35:58;20.80;;;12.50;;
75554;SDS011;64138;53.124;18.032;2022-10-26T21:38:26;25.00;;;14.00;;
75554;SDS011;64138;53.124;18.032;2022-10-26T21:41:03;23.10;;;13.50;;
75554;SDS011;64138;53.124;18.032;2022-10-26T21:43:31;17.50;;;9.90;;
75554;SDS011;64138;53.124;18.032;2022-10-26T21:45:59;18.70;;;10.70;;
75554;SDS011;64138;53.124;18.032;2022-10-26T21:48:26;22.60;;;14.40;;
75554;SDS011;64138;53.124;18.032;2022-10-26T21:50:54;19.50;;;11.60;;
75554;SDS011;64138;53.124;18.032;2022-10-26T21:53:21;19.40;;;12.50;;
75554;SDS011;64138;53.124;18.032;2022-10-26T21:55:47;23.00;;;13.60;;
75554;SDS011;64138;53.124;18.032;2022-10-26T21:58:17;24.70;;;14.40;;
75554;SDS011;64138;53.124;18.032;2022-10-26T22:00:43;22.60;;;12.60;;
75554;SDS011;64138;53.124;18.032;2022-10-26T22:03:10;23.40;;;13.20;;
75554;SDS011;64138;53.124;18.032;2022-10-26T22:05:36;25.60;;;13.50;;
75554;SDS011;64138;53.124;18.032;2022-10-26T22:08:03;25.70;;;12.90;;
75554;SDS011;64138;53.124;18.032;2022-10-26T22:10:30;19.80;;;10.60;;
75554;SDS011;64138;53.124;18.032;2022-10-26T22:12:57;20.00;;;11.40;;
75554;SDS011;64138;53.124;18.032;2022-10-26T22:15:24;14.30;;;8.40;;
75554;SDS011;64138;53.124;18.032;2022-10-26T22:17:50;17.20;;;10.40;;
75554;SDS011;64138;53.124;18.032;2022-10-26T22:20:17;21.60;;;10.90;;
75554;SDS011;64138;53.124;18.032;2022-10-26T22:22:43;14.30;;;9.60;;
75554;SDS011;64138;53.124;18.032;2022-10-26T22:25:10;15.50;;;9.10;;
75554;SDS011;64138;53.124;18.032;2022-10-26T22:27:36;19.00;;;10.70;;
75554;SDS011;64138;53.124;18.032;2022-10-26T22:30:03;16.50;;;10.10;;
75554;SDS011;64138;53.124;18.032;2022-10-26T22:32:30;14.50;;;8.70;;
75554;SDS011;64138;53.124;18.032;2022-10-26T22:34:56;14.70;;;8.90;;
75554;SDS011;64138;53.124;18.032;2022-10-26T22:37:23;17.00;;;9.70;;
75554;SDS011;64138;53.124;18.032;2022-10-26T22:39:49;14.90;;;8.40;;
75554;SDS011;64138;53.124;18.032;2022-10-26T22:42:16;13.80;;;8.30;;
75554;SDS011;64138;53.124;18.032;2022-10-26T22:44:43;13.50;;;7.90;;
75554;SDS011;64138;53.124;18.032;2022-10-26T22:47:09;15.80;;;9.60;;
75554;SDS011;64138;53.124;18.032;2022-10-26T22:49:36;16.50;;;9.50;;
75554;SDS011;64138;53.124;18.032;2022-10-26T22:52:02;15.90;;;9.70;;
75554;SDS011;64138;53.124;18.032;2022-10-26T22:54:29;16.60;;;9.40;;
75554;SDS011;64138;53.124;18.032;2022-10-26T22:56:56;15.70;;;9.30;;
75554;SDS011;64138;53.124;18.032;2022-10-26T22:59:22;18.40;;;10.50;;
75554;SDS011;64138;53.124;18.032;2022-10-26T23:01:49;15.60;;;8.70;;
75554;SDS011;64138;53.124;18.032;2022-10-26T23:04:15;14.50;;;9.20;;
75554;SDS011;64138;53.124;18.032;2022-10-26T23:06:42;17.20;;;10.00;;
75554;SDS011;64138;53.124;18.032;2022-10-26T23:09:08;12.90;;;7.20;;
75554;SDS011;64138;53.124;18.032;2022-10-26T23:11:35;14.10;;;8.00;;
75554;SDS011;64138;53.124;18.032;2022-10-26T23:14:02;13.30;;;7.10;;
75554;SDS011;64138;53.124;18.032;2022-10-26T23:16:29;16.70;;;9.80;;
75554;SDS011;64138;53.124;18.032;2022-10-26T23:18:56;14.60;;;8.40;;
75554;SDS011;64138;53.124;18.032;2022-10-26T23:21:23;14.10;;;8.10;;
75554;SDS011;64138;53.124;18.032;2022-10-26T23:23:50;14.50;;;8.40;;
75554;SDS011;64138;53.124;18.032;2022-10-26T23:26:18;14.20;;;8.20;;
75554;SDS011;64138;53.124;18.032;2022-10-26T23:28:46;15.40;;;8.40;;
75554;SDS011;64138;53.124;18.032;2022-10-26T23:31:17;16.80;;;10.20;;